createdAt,value
2022-08-25T00:04:53.702Z,97230.44
2022-08-25T00:10:14.761Z,97227.78
2022-08-25T00:15:36.084Z,97220.34
2022-08-25T00:20:57.081Z,97218.16
2022-08-25T00:26:18.067Z,97218.41
2022-08-25T00:31:39.878Z,97215.78
2022-08-25T00:37:01.974Z,97216.06
2022-08-25T00:42:23.923Z,97208.00
2022-08-25T00:47:44.629Z,97205.06
2022-08-25T00:53:07.189Z,97206.63
2022-08-25T00:58:31.178Z,97212.75
2022-08-25T01:03:52.128Z,97205.47
2022-08-25T01:09:14.109Z,97198.97
2022-08-25T01:14:37.001Z,97197.53
2022-08-25T01:19:57.696Z,97190.94
2022-08-25T01:25:47.817Z,97187.84
2022-08-25T01:31:23.738Z,97187.84
2022-08-25T01:36:45.551Z,97184.19
2022-08-25T01:42:12.734Z,97188.00
2022-08-25T01:47:33.725Z,97182.09
2022-08-25T01:53:09.382Z,97184.66
2022-08-25T01:58:36.215Z,97169.63
2022-08-25T02:03:58.445Z,97172.50
2022-08-25T02:09:19.631Z,97178.50
2022-08-25T02:14:40.755Z,97184.38
2022-08-25T02:20:08.275Z,97180.88
2022-08-25T02:25:28.866Z,97173.06
2022-08-25T02:30:49.985Z,97178.44
2022-08-25T02:36:10.777Z,97169.53
2022-08-25T02:41:33.544Z,97180.72
2022-08-25T02:46:54.031Z,97185.25
2022-08-25T02:52:15.564Z,97182.13
2022-08-25T02:57:36.639Z,97172.50
2022-08-25T03:02:57.613Z,97168.53
2022-08-25T03:08:18.739Z,97178.97
2022-08-25T03:13:39.839Z,97168.63
2022-08-25T03:19:00.551Z,97168.53
2022-08-25T03:24:21.160Z,97168.72
2022-08-25T03:29:43.082Z,97169.63
2022-08-25T03:35:05.076Z,97162.06
2022-08-25T03:40:26.530Z,97164.75
2022-08-25T03:45:48.134Z,97166.25
2022-08-25T03:51:09.161Z,97160.31
2022-08-25T03:56:30.860Z,97160.38
2022-08-25T04:01:55.258Z,97161.22
2022-08-25T04:07:16.710Z,97159.75
2022-08-25T04:12:38.195Z,97155.47
2022-08-25T04:17:59.220Z,97157.16
2022-08-25T04:23:20.543Z,97158.34
2022-08-25T04:28:42.295Z,97156.81
2022-08-25T04:34:04.513Z,97150.91
2022-08-25T04:39:45.377Z,97144.19
2022-08-25T04:45:06.680Z,97135.47
2022-08-25T04:50:27.503Z,97137.25
2022-08-25T04:55:48.986Z,97140.09
2022-08-25T05:01:12.634Z,97141.84
2022-08-25T05:06:34.715Z,97139.28
2022-08-25T05:11:55.570Z,97151.25
2022-08-25T05:17:16.219Z,97156.44
2022-08-25T05:22:37.323Z,97159.50
2022-08-25T05:27:58.026Z,97156.53
2022-08-25T05:33:20.267Z,97161.00
2022-08-25T05:38:41.948Z,97164.72
2022-08-25T05:44:02.928Z,97154.59
2022-08-25T05:49:23.842Z,97152.59
2022-08-25T05:54:44.577Z,97152.16
2022-08-25T06:00:07.003Z,97164.63
2022-08-25T06:05:32.800Z,97150.34
2022-08-25T06:10:53.611Z,97156.53
2022-08-25T06:16:14.261Z,97161.84
2022-08-25T06:21:35.332Z,97157.81
2022-08-25T06:26:57.039Z,97162.00
2022-08-25T06:32:17.927Z,97160.16
2022-08-25T06:37:39.046Z,97159.06
2022-08-25T06:42:59.969Z,97158.91
2022-08-25T06:48:20.624Z,97165.72
2022-08-25T06:53:41.718Z,97163.59
2022-08-25T06:59:04.542Z,97165.00
2022-08-25T07:04:25.762Z,97164.50
2022-08-25T07:09:47.092Z,97160.31
2022-08-25T07:15:19.762Z,97164.78
2022-08-25T07:20:41.103Z,97161.41
2022-08-25T07:26:36.906Z,97160.59
2022-08-25T07:31:58.613Z,97159.00
2022-08-25T07:37:38.385Z,97153.09
2022-08-25T07:43:06.356Z,97156.88
2022-08-25T07:48:28.411Z,97151.97
2022-08-25T07:53:48.953Z,97156.03
2022-08-25T07:59:12.554Z,97144.09
2022-08-25T08:04:36.761Z,97137.59
2022-08-25T08:10:32.852Z,97129.91
2022-08-25T08:15:43.200Z,97131.56
2022-08-25T08:21:05.486Z,97138.91
2022-08-25T08:26:48.224Z,97137.88
2022-08-25T08:32:13.394Z,97138.91
2022-08-25T08:37:35.102Z,97131.13
2022-08-25T08:43:18.827Z,97128.06
2022-08-25T08:48:52.000Z,97126.22
2022-08-25T08:54:25.213Z,97126.41
2022-08-25T08:59:56.652Z,97130.28
2022-08-25T09:05:23.035Z,97128.19
2022-08-25T09:10:59.247Z,97127.72
2022-08-25T09:16:54.771Z,97115.22
2022-08-25T09:22:35.927Z,97117.22
2022-08-25T09:28:21.483Z,97104.91
2022-08-25T09:33:42.426Z,97092.69
2022-08-25T09:39:03.854Z,97094.88
2022-08-25T09:44:33.092Z,97074.19
2022-08-25T09:50:05.369Z,97068.69
2022-08-25T09:55:32.630Z,97062.28
2022-08-25T10:01:22.438Z,97051.50
2022-08-25T10:06:45.356Z,97055.75
2022-08-25T10:12:19.027Z,97058.56
2022-08-25T10:17:42.002Z,97058.00
2022-08-25T10:23:14.474Z,97048.75
2022-08-25T10:28:54.600Z,97048.28
2022-08-25T10:34:35.849Z,97056.22
2022-08-25T10:40:09.886Z,97046.22
2022-08-25T10:45:46.347Z,97046.44
2022-08-25T10:51:28.610Z,97048.50
2022-08-25T10:57:17.366Z,97048.47
2022-08-25T11:02:47.361Z,97040.00
2022-08-25T11:08:23.473Z,97035.66
2022-08-25T11:13:53.296Z,97032.75
2022-08-25T11:19:33.782Z,97022.28
2022-08-25T11:25:12.831Z,97029.66
2022-08-25T11:30:35.140Z,97027.38
2022-08-25T11:36:00.975Z,97029.91
2022-08-25T11:41:27.271Z,97023.13
2022-08-25T11:46:51.297Z,97022.97
2022-08-25T11:52:34.751Z,97017.78
2022-08-25T11:58:27.468Z,96999.66
2022-08-25T12:03:51.439Z,97003.00
2022-08-25T12:09:13.325Z,96997.22
2022-08-25T12:14:42.602Z,96981.94
2022-08-25T12:20:03.997Z,96981.44
2022-08-25T12:25:36.894Z,96977.47
2022-08-25T12:31:06.316Z,96965.19
2022-08-25T12:36:31.541Z,96962.66
2022-08-25T12:41:58.599Z,96957.91
2022-08-25T12:47:28.277Z,96942.25
2022-08-25T12:52:49.544Z,96932.19
2022-08-25T12:58:12.169Z,96937.16
2022-08-25T13:09:36.059Z,96937.16
2022-08-25T13:14:59.558Z,96916.66
2022-08-25T13:20:27.313Z,96927.56
2022-08-25T13:25:51.096Z,96922.91
2022-08-25T13:31:18.585Z,96918.38
2022-08-25T13:37:03.767Z,96923.50
2022-08-25T13:42:28.808Z,96905.25
2022-08-25T13:47:55.976Z,96900.28
2022-08-25T13:53:23.936Z,96892.41
2022-08-25T13:58:46.441Z,96891.75
2022-08-25T14:04:25.597Z,96891.50
2022-08-25T14:10:01.786Z,96889.28
2022-08-25T14:15:22.383Z,96879.19
2022-08-25T14:20:47.343Z,96877.06
2022-08-25T14:26:08.334Z,96865.84
2022-08-25T14:31:33.411Z,96880.50
2022-08-25T14:36:54.602Z,96875.16
2022-08-25T14:42:16.812Z,96875.28
2022-08-25T14:47:38.479Z,96870.03
2022-08-25T14:53:00.178Z,96863.84
2022-08-25T14:58:25.740Z,96859.47
2022-08-25T15:03:52.561Z,96850.28
2022-08-25T15:09:16.543Z,96851.44
2022-08-25T15:14:40.540Z,96859.44
2022-08-25T15:20:01.584Z,96854.09
2022-08-25T15:25:27.174Z,96848.78
2022-08-25T15:30:48.034Z,96853.66
2022-08-25T15:36:15.341Z,96848.66
2022-08-25T15:41:37.590Z,96840.19
2022-08-25T15:46:59.533Z,96845.88
2022-08-25T15:52:21.105Z,96843.44
2022-08-25T15:57:42.297Z,96846.38
2022-08-25T16:03:04.329Z,96856.44
2022-08-25T16:08:27.966Z,96846.66
2022-08-25T16:13:49.048Z,96846.53
2022-08-25T16:19:11.294Z,96841.59
2022-08-25T16:24:32.041Z,96823.59
2022-08-25T16:29:59.717Z,96827.69
2022-08-25T16:35:20.723Z,96829.50
2022-08-25T16:40:43.304Z,96843.06
2022-08-25T16:46:07.300Z,96844.75
2022-08-25T16:51:29.553Z,96844.75
2022-08-25T16:56:55.182Z,96852.75
2022-08-25T17:02:16.584Z,96839.00
2022-08-25T17:07:39.433Z,96832.38
2022-08-25T17:13:00.274Z,96844.53
2022-08-25T17:18:21.295Z,96847.00
2022-08-25T17:23:43.581Z,96837.81
2022-08-25T17:29:05.825Z,96834.34
2022-08-25T17:34:28.594Z,96838.03
2022-08-25T17:39:50.079Z,96836.41
2022-08-25T17:45:14.989Z,96847.22
2022-08-25T17:50:36.899Z,96852.75
2022-08-25T17:56:06.832Z,96844.16
2022-08-25T18:01:31.228Z,96846.59
2022-08-25T18:06:52.006Z,96842.56
2022-08-25T18:12:12.707Z,96838.13
2022-08-25T18:17:34.303Z,96841.19
2022-08-25T18:22:57.710Z,96846.97
2022-08-25T18:28:19.801Z,96859.22
2022-08-25T18:33:44.881Z,96862.16
2022-08-25T18:39:25.162Z,96867.16
2022-08-25T18:44:46.807Z,96862.28
2022-08-25T18:50:08.208Z,96865.13
2022-08-25T18:55:29.503Z,96861.81
2022-08-25T19:00:51.183Z,96866.13
2022-08-25T19:06:12.011Z,96869.38
2022-08-25T19:11:32.859Z,96869.19
2022-08-25T19:16:54.739Z,96865.94
2022-08-25T19:22:38.499Z,96861.91
2022-08-25T19:28:00.055Z,96854.38
2022-08-25T19:33:42.521Z,96855.44
2022-08-25T19:39:02.194Z,96863.41
2022-08-25T19:44:23.622Z,96867.13
2022-08-25T19:49:44.610Z,96865.75
2022-08-25T19:55:06.601Z,96860.22
2022-08-25T20:00:32.623Z,96859.84
2022-08-25T20:05:56.493Z,96855.78
2022-08-25T20:11:17.863Z,96860.75
2022-08-25T20:16:39.930Z,96860.50
2022-08-25T20:22:01.175Z,96849.47
2022-08-25T20:27:33.043Z,96860.31
2022-08-25T20:32:55.673Z,96857.84
2022-08-25T20:38:16.596Z,96865.41
2022-08-25T20:43:38.352Z,96861.78
2022-08-25T20:49:00.952Z,96870.78
2022-08-25T20:54:26.305Z,96861.38
2022-08-25T20:59:47.656Z,96864.41
2022-08-25T21:05:10.225Z,96866.31
2022-08-25T21:10:31.440Z,96870.38
2022-08-25T21:15:52.271Z,96863.63
2022-08-25T21:21:15.243Z,96863.63
2022-08-25T21:26:48.918Z,96854.19
2022-08-25T21:32:10.055Z,96861.97
2022-08-25T21:37:30.767Z,96861.38
2022-08-25T21:42:52.702Z,96860.44
2022-08-25T21:48:13.482Z,96862.66
2022-08-25T21:53:35.315Z,96854.69
2022-08-25T21:58:55.963Z,96844.66
2022-08-25T22:04:16.615Z,96846.53
2022-08-25T22:09:37.380Z,96842.41
2022-08-25T22:14:59.420Z,96836.97
2022-08-25T22:20:20.714Z,96829.81
2022-08-25T22:25:41.624Z,96829.63
2022-08-25T22:31:04.870Z,96827.34
2022-08-25T22:36:31.455Z,96829.59
2022-08-25T22:41:52.407Z,96818.44
2022-08-25T22:47:13.342Z,96811.28
2022-08-25T22:52:34.821Z,96816.16
2022-08-25T22:57:56.005Z,96802.72
2022-08-25T23:03:17.039Z,96805.16
2022-08-25T23:08:40.980Z,96800.06
2022-08-25T23:14:02.360Z,96798.06
2022-08-25T23:19:23.043Z,96798.03
2022-08-25T23:24:53.475Z,96788.66
2022-08-25T23:30:15.053Z,96777.63
2022-08-25T23:35:35.571Z,96783.38
2022-08-25T23:40:56.793Z,96774.41
2022-08-25T23:46:20.392Z,96773.19
2022-08-25T23:51:41.366Z,96772.59
2022-08-25T23:57:02.498Z,96768.31
